Jericho, Mississippi
Current Conditions -  °F | °C
As of 3:53 PM on Thursday 27 Nov 2014 (Local Time) from KTUP Reporting Station
Broken Clouds Broken Clouds  
Wind Chill: 41°   Ceiling: 3700
Heat Index: 44°   Visibility: 10mi
Dew Point: 28°   Wind: 6mph
Humidity: 53%   Direction: 360°N
Pressure: 30.47"   Gusts: NA
Location:  34.5357°N, 88.6348°W
Report Text: KTUP 272153Z 36005KT 10SM BKN037 07/M02 A3047 RMK AO2 SLP318 T00671022 $
Loading
Personal Weather Stations






























Interactive Weather Map New forecast layout! Learn more

10-Day Weather Forecast

Advertisements
Track Severe Weather on mobile